Time;durP1;ratioP1;P1;durP2;ratioP2;P2;SDS_P1;SDS_P2;PMS_P1;PMS_P2;Temp;Humidity;BMP_temperature;BMP_pressure;BME280_temperature;BME280_humidity;BME280_pressure;Samples;Min_cycle;Max_cycle;Signal;HPM_P1;HPM_P2
2022/12/28 00:00:20;;;;;;;1.20;1.03;;;;;;;2.13;100.00;97249.44;5061887;28;20197;-78
2022/12/28 00:02:47;;;;;;;1.13;1.00;;;;;;;2.18;100.00;97256.97;5057590;28;20206;-79
2022/12/28 00:05:16;;;;;;;0.83;0.83;;;;;;;2.14;100.00;97251.09;5058296;28;20590;-79
2022/12/28 00:07:43;;;;;;;1.13;0.90;;;;;;;2.17;100.00;97250.81;5059018;28;20260;-79
2022/12/28 00:10:12;;;;;;;0.80;0.80;;;;;;;2.05;100.00;97236.06;5080895;28;20271;-79
2022/12/28 00:12:39;;;;;;;1.00;0.90;;;;;;;2.10;100.00;97251.59;5077818;28;20284;-79
2022/12/28 00:15:06;;;;;;;2.37;1.00;;;;;;;2.08;100.00;97240.25;5068097;28;20220;-78
2022/12/28 00:17:33;;;;;;;2.10;1.00;;;;;;;2.06;100.00;97240.41;5066768;28;20198;-79
2022/12/28 00:20:01;;;;;;;0.80;0.80;;;;;;;2.08;100.00;97232.25;5070354;28;20209;-78
2022/12/28 00:22:28;;;;;;;1.10;0.90;;;;;;;2.07;100.00;97244.72;5061850;28;20233;-79
2022/12/28 00:24:55;;;;;;;0.80;0.80;;;;;;;2.09;100.00;97241.91;5069692;28;20241;-79
2022/12/28 00:27:25;;;;;;;2.20;1.00;;;;;;;2.13;100.00;97235.28;5066344;28;20202;-79
2022/12/28 00:29:57;;;;;;;1.67;0.80;;;;;;;2.04;100.00;97222.91;5066837;28;20201;-79
2022/12/28 00:32:26;;;;;;;0.60;0.60;;;;;;;2.14;100.00;97235.13;5064352;28;20297;-79
2022/12/28 00:34:53;;;;;;;0.63;0.63;;;;;;;2.10;100.00;97217.78;5065202;28;20212;-79
2022/12/28 00:37:20;;;;;;;0.70;0.70;;;;;;;2.14;100.00;97219.13;5065939;28;20255;-79
2022/12/28 00:39:47;;;;;;;0.83;0.83;;;;;;;2.28;100.00;97229.25;5071722;28;20208;-79
2022/12/28 00:42:15;;;;;;;1.53;0.90;;;;;;;2.38;100.00;97222.97;5062961;28;20225;-79
2022/12/28 00:44:43;;;;;;;2.10;0.87;;;;;;;2.45;100.00;97221.34;5070750;28;20217;-78
2022/12/28 00:47:10;;;;;;;0.87;0.77;;;;;;;2.45;100.00;97214.19;5057764;28;20244;-79
2022/12/28 00:49:39;;;;;;;0.80;0.80;;;;;;;2.43;100.00;97217.97;5064425;28;20210;-79
2022/12/28 00:52:06;;;;;;;0.80;0.80;;;;;;;2.39;100.00;97211.28;5069191;28;20206;-79
2022/12/28 00:54:33;;;;;;;0.70;0.70;;;;;;;2.38;100.00;97217.63;5065425;28;20204;-79
2022/12/28 00:57:00;;;;;;;0.90;0.77;;;;;;;2.41;100.00;97211.97;5062374;28;20208;-79
2022/12/28 00:59:27;;;;;;;1.73;0.70;;;;;;;2.41;100.00;97211.97;5061245;28;20205;-78
2022/12/28 01:01:55;;;;;;;0.80;0.80;;;;;;;2.48;100.00;97210.34;5060746;28;20195;-78
2022/12/28 01:04:22;;;;;;;1.23;0.87;;;;;;;2.49;100.00;97206.69;5060911;28;20275;-79
2022/12/28 01:06:50;;;;;;;1.13;0.90;;;;;;;2.57;100.00;97204.88;5065236;28;20267;-78
2022/12/28 01:09:17;;;;;;;0.80;0.80;;;;;;;2.55;100.00;97206.88;5065437;28;20194;-79
2022/12/28 01:11:44;;;;;;;0.80;0.80;;;;;;;2.53;100.00;97208.03;5065773;28;20259;-78
2022/12/28 01:14:11;;;;;;;1.07;0.90;;;;;;;2.57;100.00;97204.88;5064086;28;20201;-79
2022/12/28 01:16:38;;;;;;;0.80;0.80;;;;;;;2.55;100.00;97198.88;5053200;28;20201;-79
2022/12/28 01:19:07;;;;;;;0.70;0.70;;;;;;;2.63;100.00;97203.44;5064577;28;20217;-79
2022/12/28 01:21:36;;;;;;;0.80;0.80;;;;;;;2.67;100.00;97207.44;5058096;28;20241;-79
2022/12/28 01:24:06;;;;;;;0.70;0.70;;;;;;;2.61;100.00;97192.09;5062662;28;20216;-78
2022/12/28 01:26:33;;;;;;;0.70;0.70;;;;;;;2.57;100.00;97193.38;5054992;28;20202;-79
2022/12/28 01:29:01;;;;;;;0.73;0.73;;;;;;;2.68;100.00;97201.09;5068798;28;20199;-79
2022/12/28 01:31:31;;;;;;;1.03;0.90;;;;;;;2.69;100.00;97192.13;5065890;28;20643;-79
2022/12/28 01:33:58;;;;;;;1.30;0.80;;;;;;;2.69;100.00;97197.44;5057257;28;20193;-79
2022/12/28 01:36:30;;;;;;;0.73;0.70;;;;;;;2.68;100.00;97190.44;5060668;28;20481;-79
2022/12/28 01:38:59;;;;;;;0.80;0.80;;;;;;;2.79;100.00;97200.84;5066645;28;20208;-79
2022/12/28 01:41:28;;;;;;;0.70;0.70;;;;;;;2.85;100.00;97208.19;5068632;28;20201;-79
2022/12/28 01:44:32;;;;;;;1.47;0.70;;;;;;;2.85;100.00;97192.19;5062670;28;20206;-78
2022/12/28 01:47:03;;;;;;;1.07;0.73;;;;;;;2.86;100.00;97177.00;5066053;28;20217;-79
2022/12/28 01:49:34;;;;;;;0.90;0.70;;;;;;;2.88;100.00;97185.69;5052252;28;20209;-79
2022/12/28 01:52:08;;;;;;;0.80;0.80;;;;;;;2.92;100.00;97181.69;5064286;28;20206;-79
2022/12/28 01:54:39;;;;;;;0.80;0.80;;;;;;;2.77;100.00;97156.63;5064353;28;20251;-79
2022/12/28 01:57:07;;;;;;;0.83;0.80;;;;;;;2.77;100.00;97146.81;5064906;28;20215;-78
2022/12/28 01:59:39;;;;;;;0.80;0.80;;;;;;;2.64;100.00;97125.09;5062515;28;20206;-79
2022/12/28 02:02:06;;;;;;;0.80;0.80;;;;;;;2.57;100.00;97113.41;5054137;28;20205;-78
2022/12/28 02:04:33;;;;;;;1.20;1.00;;;;;;;2.61;100.00;97115.59;5057709;28;20202;-79
2022/12/28 02:07:01;;;;;;;0.93;0.83;;;;;;;2.65;100.00;97108.09;5069111;28;20209;-79
2022/12/28 02:09:35;;;;;;;0.90;0.80;;;;;;;2.63;100.00;97107.44;5060831;28;20286;-79
2022/12/28 02:12:06;;;;;;;0.73;0.70;;;;;;;2.65;100.00;97111.59;5073038;28;20224;-78
2022/12/28 02:14:34;;;;;;;0.60;0.60;;;;;;;2.69;100.00;97101.44;5064388;28;20212;-78
2022/12/28 02:17:01;;;;;;;0.87;0.60;;;;;;;2.69;100.00;97084.63;5061489;28;20229;-79
2022/12/28 02:19:37;;;;;;;0.60;0.60;;;;;;;2.77;100.00;97096.13;5069523;28;20304;-79
2022/12/28 02:22:36;;;;;;;1.27;0.80;;;;;;;2.79;100.00;97096.81;5073850;28;20240;-79
2022/12/28 02:25:49;;;;;;;0.90;0.80;;;;;;;2.73;100.00;97086.78;5060613;28;20213;-79
2022/12/28 02:28:40;;;;;;;0.70;0.70;;;;;;;2.75;100.00;97082.13;5066981;28;20206;-78
2022/12/28 02:31:12;;;;;;;0.60;0.60;;;;;;;2.80;100.00;97085.16;5062272;28;20202;-78
2022/12/28 02:33:44;;;;;;;1.40;0.73;;;;;;;2.95;100.00;97080.84;5076027;28;20230;-79
2022/12/28 02:36:16;;;;;;;0.60;0.60;;;;;;;2.98;100.00;97093.81;5062433;28;20234;-79
2022/12/28 02:38:49;;;;;;;0.87;0.80;;;;;;;3.05;100.00;97096.69;5071302;28;20206;-79
2022/12/28 02:41:21;;;;;;;0.67;0.67;;;;;;;3.06;100.00;97089.53;5078650;28;20211;-79
2022/12/28 02:43:50;;;;;;;0.77;0.70;;;;;;;3.07;100.00;97085.81;5077613;28;20264;-79
2022/12/28 02:52:11;;;;;;;0.70;0.70;;;;;;;2.97;100.00;97112.69;5064159;28;20205;-79
2022/12/28 02:58:22;;;;;;;1.17;0.70;;;;;;;2.85;100.00;97101.50;5065139;28;20202;-79
2022/12/28 03:01:02;;;;;;;1.47;1.00;;;;;;;2.77;100.00;97106.81;5069954;28;20206;-79
2022/12/28 03:03:35;;;;;;;0.67;0.67;;;;;;;2.74;100.00;97099.13;5065761;28;20201;-79
2022/12/28 03:09:08;;;;;;;0.80;0.80;;;;;;;2.69;100.00;97111.28;5062895;28;20235;-79
2022/12/28 03:11:41;;;;;;;0.83;0.80;;;;;;;2.62;100.00;97108.44;5057403;28;20270;-78
2022/12/28 03:14:20;;;;;;;0.80;0.80;;;;;;;2.60;100.00;97113.94;5062138;28;20198;-79
2022/12/28 03:31:06;;;;;;;0.90;0.90;;;;;;;2.51;100.00;97119.38;5061442;28;20206;-79
2022/12/28 03:33:41;;;;;;;1.27;1.17;;;;;;;2.50;100.00;97112.38;5069833;28;20285;-79
2022/12/28 03:36:16;;;;;;;1.77;1.20;;;;;;;2.44;100.00;97108.53;5064855;28;20225;-79
2022/12/28 03:38:50;;;;;;;1.00;0.90;;;;;;;2.42;100.00;97104.34;5065293;28;20216;-79
2022/12/28 03:41:22;;;;;;;1.10;1.00;;;;;;;2.43;100.00;97112.19;5063528;28;20211;-79
2022/12/28 03:43:53;;;;;;;1.00;0.83;;;;;;;2.45;100.00;97098.72;5071553;28;20240;-79
2022/12/28 03:46:28;;;;;;;1.07;0.90;;;;;;;2.48;100.00;97088.53;5057134;28;20309;-79
2022/12/28 03:48:58;;;;;;;1.90;0.97;;;;;;;2.49;100.00;97092.06;5053893;28;20277;-79
2022/12/28 03:51:28;;;;;;;1.23;0.80;;;;;;;2.52;100.00;97083.75;5055509;28;20209;-78
2022/12/28 03:53:55;;;;;;;0.90;0.77;;;;;;;2.61;100.00;97083.59;5066929;28;20297;-79
2022/12/28 03:56:25;;;;;;;1.30;0.80;;;;;;;2.55;100.00;97072.75;5067487;28;20194;-79
2022/12/28 03:58:54;;;;;;;1.43;1.20;;;;;;;2.54;100.00;97071.94;5061269;28;20288;-79
2022/12/28 04:01:24;;;;;;;1.17;0.80;;;;;;;2.53;100.00;97064.91;5056272;28;20289;-79
2022/12/28 04:03:51;;;;;;;0.97;0.80;;;;;;;2.47;100.00;97048.72;5064884;28;20506;-79
2022/12/28 04:06:20;;;;;;;1.40;1.10;;;;;;;2.48;100.00;97058.38;5066807;28;20308;-79
2022/12/28 04:08:47;;;;;;;0.70;0.70;;;;;;;2.55;100.00;97060.25;5066068;28;20197;-79
2022/12/28 04:11:14;;;;;;;1.23;0.57;;;;;;;2.53;100.00;97067.59;5061137;28;20260;-79
2022/12/28 04:13:45;;;;;;;0.83;0.80;;;;;;;2.51;100.00;97055.41;5067139;28;20281;-79
2022/12/28 04:16:17;;;;;;;0.70;0.70;;;;;;;2.52;100.00;97054.41;5065898;28;20194;-79
2022/12/28 04:18:46;;;;;;;1.80;0.80;;;;;;;2.54;100.00;97060.44;5069438;28;20201;-79
2022/12/28 04:21:14;;;;;;;1.20;0.67;;;;;;;2.51;100.00;97042.09;5053276;28;20238;-79
2022/12/28 04:23:45;;;;;;;0.60;0.60;;;;;;;2.62;100.00;97041.78;5063766;28;20297;-79
2022/12/28 04:26:17;;;;;;;0.70;0.70;;;;;;;2.55;100.00;97035.44;5067111;28;20335;-79
2022/12/28 04:28:46;;;;;;;0.70;0.70;;;;;;;2.55;100.00;97030.09;5066100;28;20208;-79
2022/12/28 04:31:32;;;;;;;0.80;0.80;;;;;;;2.65;100.00;97042.28;5062003;28;20198;-79
2022/12/28 04:34:17;;;;;;;0.70;0.70;;;;;;;2.62;100.00;97041.78;5056662;28;20209;-79
2022/12/28 04:36:59;;;;;;;0.80;0.80;;;;;;;2.60;100.00;97030.44;5058977;28;20205;-79
2022/12/28 04:39:28;;;;;;;0.70;0.70;;;;;;;2.55;100.00;97041.56;5074408;28;20211;-79
2022/12/28 04:41:55;;;;;;;2.40;0.70;;;;;;;2.50;100.00;97029.75;5055555;28;20297;-79
2022/12/28 04:44:22;;;;;;;0.60;0.60;;;;;;;2.48;100.00;97026.41;5063933;28;20285;-80
2022/12/28 04:46:49;;;;;;;2.00;0.80;;;;;;;2.63;100.00;97020.28;5061497;28;20230;-79
2022/12/28 04:49:17;;;;;;;1.80;0.90;;;;;;;2.49;100.00;97026.25;5052959;28;20206;-79
2022/12/28 04:51:43;;;;;;;0.70;0.70;;;;;;;2.49;100.00;97028.06;5058575;28;20209;-79
2022/12/28 04:54:12;;;;;;;0.60;0.60;;;;;;;2.43;100.00;97026.06;5055310;28;20210;-79
2022/12/28 04:56:41;;;;;;;0.80;0.80;;;;;;;2.50;100.00;97011.09;5065035;28;21557;-79
2022/12/28 04:59:08;;;;;;;0.70;0.70;;;;;;;2.47;100.00;97022.06;5068636;28;20234;-79
2022/12/28 05:01:35;;;;;;;0.90;0.70;;;;;;;2.42;100.00;97011.91;5063270;28;20201;-79
2022/12/28 05:04:02;;;;;;;0.93;0.70;;;;;;;2.38;100.00;97004.41;5059987;28;20198;-79
2022/12/28 05:06:29;;;;;;;0.77;0.70;;;;;;;2.34;100.00;97003.91;5063441;28;20217;-79
2022/12/28 05:08:57;;;;;;;0.80;0.80;;;;;;;2.32;100.00;97013.03;5058051;28;20269;-79
2022/12/28 05:11:26;;;;;;;0.70;0.70;;;;;;;2.31;100.00;97014.03;5066540;28;20221;-79
2022/12/28 05:13:55;;;;;;;1.07;0.80;;;;;;;2.24;100.00;97008.53;5064075;28;20225;-79
2022/12/28 05:16:24;;;;;;;0.70;0.70;;;;;;;2.28;100.00;97010.72;5069053;28;20209;-79
2022/12/28 05:18:51;;;;;;;1.40;0.80;;;;;;;2.20;100.00;96999.22;5055742;28;20201;-78
2022/12/28 05:21:20;;;;;;;1.03;0.90;;;;;;;2.14;100.00;97006.00;5052577;28;20242;-79
2022/12/28 05:23:48;;;;;;;0.80;0.80;;;;;;;2.19;100.00;97008.19;5060376;28;20256;-79
2022/12/28 05:26:17;;;;;;;1.00;0.90;;;;;;;2.18;100.00;97004.69;5051282;28;20225;-79
2022/12/28 05:28:44;;;;;;;0.80;0.70;;;;;;;2.10;100.00;96991.34;5068699;28;20198;-78
2022/12/28 05:31:15;;;;;;;0.80;0.80;;;;;;;2.15;100.00;97002.34;5066492;28;20256;-78
2022/12/28 05:33:43;;;;;;;1.03;0.90;;;;;;;2.11;100.00;96990.34;5064287;28;20214;-79
2022/12/28 05:36:13;;;;;;;1.43;0.80;;;;;;;2.16;100.00;96989.84;5059208;28;20213;-79
2022/12/28 05:38:40;;;;;;;1.80;1.00;;;;;;;2.18;100.00;96979.88;5063635;28;20255;-78
2022/12/28 05:41:09;;;;;;;0.77;0.77;;;;;;;2.20;100.00;96978.72;5076472;28;20205;-79
2022/12/28 05:43:36;;;;;;;4.50;0.90;;;;;;;2.21;100.00;96967.03;5073077;28;20210;-79
2022/12/28 05:46:06;;;;;;;0.80;0.80;;;;;;;2.27;100.00;96973.56;5058455;28;20217;-79
2022/12/28 05:48:36;;;;;;;1.60;1.20;;;;;;;2.26;100.00;96954.09;5069385;28;20206;-79
2022/12/28 05:51:06;;;;;;;0.97;0.80;;;;;;;2.27;100.00;96970.91;5054303;28;20202;-78
2022/12/28 05:53:37;;;;;;;0.70;0.70;;;;;;;2.31;100.00;96974.06;5075865;28;20190;-78
2022/12/28 05:56:08;;;;;;;0.80;0.80;;;;;;;2.29;100.00;96982.25;5057206;28;20259;-79
2022/12/28 05:58:35;;;;;;;1.20;1.10;;;;;;;2.31;100.00;96979.41;5063994;28;20221;-78
2022/12/28 06:01:09;;;;;;;3.27;0.90;;;;;;;2.36;100.00;96972.59;5064484;28;20216;-78
2022/12/28 06:03:38;;;;;;;1.20;0.90;;;;;;;2.45;100.00;96970.78;5057164;28;20205;-79
2022/12/28 06:06:07;;;;;;;1.50;1.20;;;;;;;2.48;100.00;96970.44;5065821;28;20216;-79
2022/12/28 06:08:35;;;;;;;1.00;0.90;;;;;;;2.43;100.00;96962.94;5070618;28;20209;-79
2022/12/28 06:11:03;;;;;;;1.20;1.10;;;;;;;2.33;100.00;96946.25;5061047;28;20222;-78
2022/12/28 06:13:30;;;;;;;1.50;1.40;;;;;;;2.30;100.00;96962.56;5075855;28;20295;-78
2022/12/28 06:15:58;;;;;;;1.20;1.10;;;;;;;2.27;100.00;96979.75;5060877;28;20198;-79
2022/12/28 06:18:28;;;;;;;1.47;1.30;;;;;;;2.22;100.00;96981.19;5065837;28;20205;-79
2022/12/28 06:21:03;;;;;;;1.20;1.00;;;;;;;2.15;100.00;96981.03;5065478;28;20202;-79
2022/12/28 06:23:30;;;;;;;0.80;0.80;;;;;;;2.16;100.00;96987.19;5054197;28;20239;-78
2022/12/28 06:25:58;;;;;;;0.87;0.87;;;;;;;2.11;100.00;96984.19;5066508;28;20228;-79
2022/12/28 06:28:29;;;;;;;2.70;1.03;;;;;;;2.03;100.00;96977.00;5061797;28;20332;-79
2022/12/28 06:31:03;;;;;;;1.00;0.90;;;;;;;1.97;100.00;96985.63;5067120;28;20239;-79
2022/12/28 06:33:30;;;;;;;1.30;1.10;;;;;;;1.87;100.00;96977.78;5056072;28;20206;-78
2022/12/28 06:35:57;;;;;;;1.93;1.37;;;;;;;1.81;100.00;96972.25;5067141;28;20194;-79
2022/12/28 06:38:28;;;;;;;1.67;1.30;;;;;;;1.85;100.00;96985.09;5063327;28;20285;-79
2022/12/28 06:40:55;;;;;;;2.13;1.40;;;;;;;1.79;100.00;96995.53;5065651;28;20209;-79
2022/12/28 06:43:22;;;;;;;1.57;1.47;;;;;;;1.70;100.00;96983.22;5064984;28;20198;-79
2022/12/28 06:45:56;;;;;;;1.63;1.30;;;;;;;1.57;100.00;96970.34;5063847;28;20202;-79
2022/12/28 06:48:24;;;;;;;1.97;1.40;;;;;;;1.64;100.00;96991.81;5058066;28;20209;-79
2022/12/28 06:50:57;;;;;;;2.80;1.50;;;;;;;1.61;100.00;96981.50;5057536;28;20210;-79
2022/12/28 06:53:33;;;;;;;1.47;1.30;;;;;;;1.63;100.00;97001.63;5064841;28;20221;-79
2022/12/28 06:56:02;;;;;;;1.33;1.23;;;;;;;1.60;100.00;96991.31;5057777;28;20217;-79
2022/12/28 06:58:30;;;;;;;5.40;2.40;;;;;;;1.61;100.00;96986.84;5067170;28;20218;-78
2022/12/28 07:01:04;;;;;;;4.50;2.40;;;;;;;1.53;100.00;96976.97;5062806;28;20251;-79
2022/12/28 07:03:31;;;;;;;2.60;2.10;;;;;;;1.52;100.00;96980.63;5061665;28;20217;-79
2022/12/28 07:06:03;;;;;;;3.10;2.07;;;;;;;1.44;100.00;96965.47;5057793;28;20206;-78
2022/12/28 07:08:33;;;;;;;2.67;2.30;;;;;;;1.53;100.00;96972.47;5060280;28;20208;-79
2022/12/28 07:11:06;;;;;;;2.50;2.27;;;;;;;1.52;100.00;96970.81;5061716;28;20254;-79
2022/12/28 07:13:36;;;;;;;2.93;2.00;;;;;;;1.48;100.00;96956.16;5058105;28;20217;-79
2022/12/28 07:16:05;;;;;;;3.93;3.30;;;;;;;1.58;100.00;96974.66;5057601;28;20499;-79
2022/12/28 07:18:32;;;;;;;2.93;2.13;;;;;;;1.49;100.00;96963.16;5063425;28;20206;-78
2022/12/28 07:21:00;;;;;;;2.20;1.77;;;;;;;1.56;100.00;96968.66;5053894;28;20213;-79
2022/12/28 07:23:29;;;;;;;2.30;2.10;;;;;;;1.67;100.00;96987.03;5061628;28;20260;-79
2022/12/28 07:25:58;;;;;;;3.00;2.10;;;;;;;1.60;100.00;96969.19;5062820;28;20227;-79
2022/12/28 07:28:27;;;;;;;10.80;6.77;;;;;;;1.61;100.00;96987.66;5063334;28;20194;-79
2022/12/28 07:30:54;;;;;;;3.47;2.30;;;;;;;1.60;100.00;96991.31;5064186;28;20236;-79
2022/12/28 07:33:21;;;;;;;3.50;2.17;;;;;;;1.55;100.00;96988.28;5060362;28;20209;-79
2022/12/28 07:35:48;;;;;;;3.37;2.07;;;;;;;1.57;100.00;96985.47;5057326;28;20236;-78
2022/12/28 07:38:15;;;;;;;3.60;2.57;;;;;;;1.48;100.00;96988.09;5065694;28;20205;-78
2022/12/28 07:40:42;;;;;;;8.27;3.20;;;;;;;1.43;100.00;96978.91;5065309;28;20211;-79
2022/12/28 07:43:10;;;;;;;2.67;2.40;;;;;;;1.46;100.00;96979.41;5057482;28;20202;-79
2022/12/28 07:45:39;;;;;;;3.27;2.20;;;;;;;1.46;100.00;96984.75;5054715;28;20210;-79
2022/12/28 07:48:07;;;;;;;2.63;2.30;;;;;;;1.48;100.00;96982.75;5060817;28;20235;-78
2022/12/28 07:50:34;;;;;;;3.30;2.10;;;;;;;1.41;100.00;96976.41;5054712;28;20207;-79
2022/12/28 07:53:01;;;;;;;2.30;2.10;;;;;;;1.45;100.00;96971.59;5059129;28;20200;-79
2022/12/28 07:55:30;;;;;;;2.63;2.30;;;;;;;1.36;100.00;96959.25;5060737;28;20200;-78
2022/12/28 07:57:57;;;;;;;2.43;1.60;;;;;;;1.52;100.00;96978.81;5068704;28;20205;-79
2022/12/28 08:00:28;;;;;;;2.30;1.67;;;;;;;1.62;100.00;96967.19;5069061;28;20233;-79
2022/12/28 08:02:56;;;;;;;2.07;1.60;;;;;;;1.66;100.00;96963.22;5064446;28;20198;-79
2022/12/28 08:05:23;;;;;;;2.83;2.07;;;;;;;1.72;100.00;96973.22;5060098;28;20198;-79
2022/12/28 08:07:50;;;;;;;2.10;1.80;;;;;;;1.76;100.00;96974.59;5063255;28;20221;-79
2022/12/28 08:10:23;;;;;;;2.93;1.97;;;;;;;1.78;100.00;96960.13;5064604;28;20222;-79
2022/12/28 08:12:50;;;;;;;3.40;2.27;;;;;;;1.92;100.00;96974.63;5062554;28;20205;-79
2022/12/28 08:15:17;;;;;;;2.47;1.97;;;;;;;1.97;100.00;96979.47;5059207;28;20193;-79
2022/12/28 08:17:49;;;;;;;3.07;1.80;;;;;;;1.93;100.00;96970.16;5066247;28;20196;-79
2022/12/28 08:20:17;;;;;;;2.53;1.90;;;;;;;1.99;100.00;96974.81;5066015;28;20193;-79
2022/12/28 08:22:44;;;;;;;2.90;2.40;;;;;;;2.01;100.00;96965.69;5065280;28;20233;-79
2022/12/28 08:25:11;;;;;;;3.07;2.03;;;;;;;2.07;100.00;96959.69;5064057;28;20255;-79
2022/12/28 08:27:38;;;;;;;3.90;2.53;;;;;;;2.09;100.00;96949.72;5069491;28;20220;-79
2022/12/28 08:30:07;;;;;;;7.50;3.40;;;;;;;2.23;100.00;96946.41;5066997;28;20205;-79
2022/12/28 08:32:34;;;;;;;4.33;2.80;;;;;;;2.33;100.00;96932.09;5060113;28;20201;-79
2022/12/28 08:35:03;;;;;;;3.63;2.60;;;;;;;2.36;100.00;96931.78;5065182;28;20280;-80
2022/12/28 08:37:30;;;;;;;3.83;2.40;;;;;;;2.51;100.00;96930.13;5058577;28;20202;-79
2022/12/28 08:39:58;;;;;;;2.50;2.17;;;;;;;2.65;100.00;96934.78;5064033;28;20223;-79
2022/12/28 08:42:25;;;;;;;3.13;2.50;;;;;;;2.68;100.00;96913.13;5062621;28;20198;-79
2022/12/28 08:44:52;;;;;;;4.00;2.70;;;;;;;2.74;100.00;96904.44;5062373;28;20202;-79
2022/12/28 08:47:19;;;;;;;4.73;3.13;;;;;;;2.67;100.00;96908.78;5058436;28;20221;-79
2022/12/28 08:49:47;;;;;;;4.53;3.53;;;;;;;2.70;100.00;96913.81;5053312;28;20209;-80
2022/12/28 08:52:16;;;;;;;2.30;1.90;;;;;;;2.75;100.00;96892.78;5060035;28;20201;-80
2022/12/28 08:54:43;;;;;;;3.67;1.77;;;;;;;2.74;100.00;96875.13;5055759;28;20207;-80
2022/12/28 08:57:10;;;;;;;1.87;1.50;;;;;;;2.83;100.00;96879.44;5059137;28;20208;-80
2022/12/28 08:59:37;;;;;;;2.57;2.33;;;;;;;2.89;100.00;96886.75;5058751;28;20208;-80
2022/12/28 09:02:06;;;;;;;5.50;3.10;;;;;;;2.99;100.00;96873.22;5060847;28;20205;-79
2022/12/28 09:04:33;;;;;;;2.30;1.83;;;;;;;3.06;100.00;96870.75;5057268;28;20201;-79
2022/12/28 09:07:00;;;;;;;3.00;2.33;;;;;;;3.15;100.00;96859.03;5056921;28;20226;-80
2022/12/28 09:09:29;;;;;;;3.37;2.37;;;;;;;3.14;100.00;96852.03;5056045;28;20201;-79
2022/12/28 09:11:56;;;;;;;3.60;2.37;;;;;;;3.26;100.00;96855.97;5056075;28;20222;-80
2022/12/28 09:14:23;;;;;;;2.60;2.33;;;;;;;3.35;100.00;96865.63;5058508;28;20700;-79
2022/12/28 09:16:50;;;;;;;3.23;1.90;;;;;;;3.38;100.00;96857.28;5057826;28;20197;-80
2022/12/28 09:19:17;;;;;;;2.80;2.13;;;;;;;3.51;100.00;96856.72;5057694;28;20210;-79
2022/12/28 09:21:47;;;;;;;2.73;2.03;;;;;;;3.55;100.00;96858.03;5065199;28;20303;-80
2022/12/28 09:24:17;;;;;;;3.33;2.07;;;;;;;3.63;100.00;96860.69;5055107;28;20213;-79
2022/12/28 09:26:46;;;;;;;2.17;1.77;;;;;;;3.65;100.00;96854.16;5074634;28;20215;-80
2022/12/28 09:29:13;;;;;;;3.67;2.00;;;;;;;3.64;100.00;96855.16;5060334;28;20221;-80
2022/12/28 09:31:41;;;;;;;4.70;2.80;;;;;;;3.74;100.00;96871.78;5060879;28;20212;-79
2022/12/28 09:34:11;;;;;;;7.10;2.83;;;;;;;3.65;100.00;96856.00;5057163;28;20247;-79
2022/12/28 09:36:41;;;;;;;4.17;2.40;;;;;;;3.73;100.00;96854.13;5061359;28;20281;-80
2022/12/28 09:39:12;;;;;;;3.27;2.20;;;;;;;3.73;100.00;96854.13;5063133;28;20272;-79
2022/12/28 09:41:44;;;;;;;5.00;2.63;;;;;;;3.77;100.00;96852.75;5070886;28;20252;-80
2022/12/28 09:44:54;;;;;;;1.97;1.30;;;;;;;3.95;100.00;96859.66;5069208;28;20198;-79
2022/12/28 09:47:28;;;;;;;4.50;2.20;;;;;;;4.03;100.00;96856.94;5041890;28;20231;-79
2022/12/28 09:50:07;;;;;;;7.83;4.10;;;;;;;4.14;100.00;96860.03;5068641;28;20201;-79
2022/12/28 09:52:37;;;;;;;4.17;2.60;;;;;;;4.21;100.00;96856.66;5063587;28;20228;-80
2022/12/28 09:55:11;;;;;;;4.33;2.60;;;;;;;4.29;100.00;96857.41;5077537;28;20244;-79
2022/12/28 09:57:43;;;;;;;2.40;2.10;;;;;;;4.35;100.00;96864.72;5089173;28;20260;-79
2022/12/28 10:00:17;;;;;;;3.27;2.10;;;;;;;4.37;100.00;96852.00;5071213;28;20339;-79
2022/12/28 10:02:50;;;;;;;4.03;2.20;;;;;;;4.41;100.00;96855.16;5076753;28;20258;-79
2022/12/28 10:05:17;;;;;;;2.67;1.90;;;;;;;4.41;100.00;96839.94;5058682;28;20289;-79
2022/12/28 10:07:44;;;;;;;4.67;2.40;;;;;;;4.57;100.00;96845.16;5068244;28;20225;-80
2022/12/28 10:10:17;;;;;;;3.43;2.50;;;;;;;4.55;100.00;96817.75;5079210;28;20232;-79
2022/12/28 10:12:46;;;;;;;4.83;2.60;;;;;;;4.75;100.00;96831.47;5060040;28;20199;-79
2022/12/28 10:15:14;;;;;;;2.70;2.20;;;;;;;4.88;100.00;96831.66;5067470;28;20213;-79
2022/12/28 10:17:42;;;;;;;5.27;2.80;;;;;;;5.05;100.00;96837.66;5066974;28;20287;-79
2022/12/28 10:20:17;;;;;;;3.97;2.57;;;;;;;5.17;100.00;96830.84;5062766;28;20204;-80
2022/12/28 10:22:46;;;;;;;3.27;2.70;;;;;;;5.30;100.00;96825.66;5064232;28;20237;-79
2022/12/28 10:25:15;;;;;;;5.80;2.80;;;;;;;5.58;100.00;96830.34;5059837;28;20268;-79
2022/12/28 10:27:44;;;;;;;6.60;4.50;;;;;;;5.67;100.00;96815.81;5064270;28;20224;-79
2022/12/28 10:30:17;;;;;;;5.70;3.80;;;;;;;5.81;100.00;96811.44;5064152;28;20202;-79
2022/12/28 10:32:53;;;;;;;4.87;2.67;;;;;;;6.09;100.00;96823.13;5055182;28;20208;-80
2022/12/28 10:35:27;;;;;;;5.33;2.90;;;;;;;6.05;100.00;96814.63;5070432;28;20251;-79
2022/12/28 10:38:01;;;;;;;4.07;2.90;;;;;;;6.05;100.00;96811.94;5067064;28;20239;-79
2022/12/28 10:40:31;;;;;;;4.97;4.47;;;;;;;6.26;100.00;96812.97;5070760;28;20256;-79
2022/12/28 10:42:59;;;;;;;3.70;2.63;;;;;;;6.41;100.00;96814.56;5062717;28;20202;-79
2022/12/28 10:45:35;;;;;;;5.13;2.80;;;;;;;6.56;100.00;96811.78;5068034;28;20202;-79
2022/12/28 10:48:09;;;;;;;2.87;2.30;;;;;;;6.71;100.00;96793.75;5063472;28;20268;-80
2022/12/28 10:50:48;;;;;;;4.77;2.30;;;;;;;6.95;100.00;96788.97;5060891;28;20209;-80
2022/12/28 10:53:24;;;;;;;3.20;2.30;;;;;;;7.09;100.00;96790.69;5078821;28;20366;-79
2022/12/28 10:56:01;;;;;;;3.97;2.33;;;;;;;7.20;100.00;96774.88;5059401;28;20248;-80
2022/12/28 10:58:29;;;;;;;7.00;2.57;;;;;;;7.40;100.00;96766.88;5063645;28;20296;-80
2022/12/28 11:00:58;;;;;;;3.30;1.90;;;;;;;7.83;100.00;96770.13;5066530;28;20194;-79
2022/12/28 11:03:30;;;;;;;2.80;2.10;;;;;;;8.19;99.81;96753.66;5064253;28;20221;-80
2022/12/28 11:06:16;;;;;;;3.30;2.20;;;;;;;8.36;96.24;96748.75;5068074;28;20202;-80
2022/12/28 11:08:45;;;;;;;3.00;1.60;;;;;;;8.55;92.98;96752.47;5069517;28;20320;-79
2022/12/28 11:11:20;;;;;;;3.40;1.77;;;;;;;8.93;92.38;96744.56;5067656;28;20256;-79
2022/12/28 11:13:53;;;;;;;1.83;1.53;;;;;;;9.28;88.57;96735.13;5061106;28;20297;-79
2022/12/28 11:16:21;;;;;;;3.70;2.67;;;;;;;9.21;89.32;96733.50;5068569;28;20209;-79
2022/12/28 11:18:48;;;;;;;5.67;2.43;;;;;;;8.91;89.67;96725.94;5052884;28;20256;-79
2022/12/28 11:21:19;;;;;;;3.40;2.27;;;;;;;8.76;94.50;96728.03;5063920;28;20190;-79
2022/12/28 11:23:47;;;;;;;2.23;1.90;;;;;;;8.85;95.33;96723.22;5055004;28;20291;-80
2022/12/28 11:26:15;;;;;;;2.63;2.00;;;;;;;9.27;93.11;96711.13;5059628;28;20351;-79
2022/12/28 11:28:44;;;;;;;3.27;2.43;;;;;;;9.26;92.31;96698.69;5062568;28;20232;-79
2022/12/28 11:31:19;;;;;;;3.53;2.40;;;;;;;9.04;90.34;96682.78;5064526;28;20236;-79
2022/12/28 11:33:50;;;;;;;2.53;1.70;;;;;;;8.86;93.24;96695.25;5059801;28;20201;-80
2022/12/28 11:36:20;;;;;;;2.17;1.90;;;;;;;8.64;93.45;96687.44;5058368;28;20195;-79
2022/12/28 11:38:50;;;;;;;2.43;1.87;;;;;;;8.37;91.67;96671.53;5062994;28;20251;-79
2022/12/28 11:41:41;;;;;;;2.77;2.00;;;;;;;7.82;92.53;96677.09;5057004;28;20194;-79
2022/12/28 11:44:21;;;;;;;2.60;2.13;;;;;;;7.48;97.45;96677.25;5056009;28;20214;-79
2022/12/28 11:47:20;;;;;;;2.30;1.90;;;;;;;7.29;98.37;96670.78;5055923;28;20210;-80
2022/12/28 11:49:48;;;;;;;3.43;2.17;;;;;;;7.45;99.25;96648.06;5057597;28;20210;-79
2022/12/28 11:52:47;;;;;;;4.00;2.20;;;;;;;7.93;99.21;96649.59;5057917;28;20210;-79
2022/12/28 11:55:37;;;;;;;3.53;2.50;;;;;;;8.38;98.05;96643.59;5060917;28;20233;-80
2022/12/28 11:58:53;;;;;;;4.23;2.20;;;;;;;8.60;93.39;96642.31;5061214;28;20284;-79
2022/12/28 12:01:46;;;;;;;2.47;2.07;;;;;;;8.91;93.88;96622.75;5056317;28;20301;-79
2022/12/28 12:04:40;;;;;;;2.93;1.87;;;;;;;9.41;92.91;96616.50;5059240;28;20274;-79
2022/12/28 12:07:20;;;;;;;2.10;1.87;;;;;;;9.44;85.16;96615.25;5063472;28;20255;-80
2022/12/28 12:09:49;;;;;;;3.23;1.93;;;;;;;9.45;84.49;96609.63;5064198;28;20198;-79
2022/12/28 12:12:37;;;;;;;3.27;2.00;;;;;;;9.47;83.50;96606.72;5061847;28;20204;-79
2022/12/28 12:15:18;;;;;;;3.40;2.43;;;;;;;9.21;86.66;96604.16;5070733;28;20320;-79
2022/12/28 12:17:53;;;;;;;5.23;2.90;;;;;;;8.93;87.87;96602.63;5079155;28;20202;-79